createdAt,value
2022-09-11T00:02:10.298Z,18.30
2022-09-11T00:04:40.177Z,18.30
2022-09-11T00:07:10.222Z,18.20
2022-09-11T00:09:40.356Z,18.20
2022-09-11T00:12:07.693Z,18.20
2022-09-11T00:14:37.105Z,18.20
2022-09-11T00:17:07.037Z,18.20
2022-09-11T00:19:35.594Z,18.20
2022-09-11T00:22:02.847Z,18.20
2022-09-11T00:24:30.101Z,18.20
2022-09-11T00:26:57.312Z,18.20
2022-09-11T00:29:27.207Z,18.20
2022-09-11T00:31:57.722Z,18.20
2022-09-11T00:34:24.944Z,18.20
2022-09-11T00:36:54.736Z,18.20
2022-09-11T00:39:24.072Z,18.20
2022-09-11T00:41:51.322Z,18.30
2022-09-11T00:44:28.269Z,18.40
2022-09-11T00:47:00.990Z,18.40
2022-09-11T00:49:46.563Z,18.40
2022-09-11T00:52:36.096Z,18.40
2022-09-11T00:55:12.681Z,18.50
2022-09-11T00:57:49.614Z,18.50
2022-09-11T01:00:17.460Z,18.50
2022-09-11T01:02:48.394Z,18.50
2022-09-11T01:05:18.513Z,18.40
2022-09-11T01:07:47.751Z,18.40
2022-09-11T01:10:15.116Z,18.40
2022-09-11T01:13:00.970Z,18.40
2022-09-11T01:15:38.408Z,18.40
2022-09-11T01:18:18.776Z,18.30
2022-09-11T01:21:23.058Z,18.30
2022-09-11T01:24:09.273Z,18.20
2022-09-11T01:26:55.633Z,18.30
2022-09-11T01:29:33.234Z,18.20
2022-09-11T01:32:18.867Z,18.10
2022-09-11T01:35:00.323Z,18.10
2022-09-11T01:37:42.967Z,18.10
2022-09-11T01:40:29.785Z,18.00
2022-09-11T01:43:07.092Z,18.00
2022-09-11T01:45:37.311Z,18.00
2022-09-11T01:48:06.261Z,18.00
2022-09-11T01:50:39.965Z,17.90
2022-09-11T01:53:10.568Z,17.90
2022-09-11T01:55:45.160Z,17.80
2022-09-11T01:58:25.116Z,17.80
2022-09-11T02:00:56.761Z,17.80
2022-09-11T02:03:43.223Z,17.80
2022-09-11T02:06:21.376Z,17.70
2022-09-11T02:08:50.552Z,17.70
2022-09-11T02:11:20.895Z,17.70
2022-09-11T02:14:06.581Z,17.70
2022-09-11T02:17:00.072Z,17.70
2022-09-11T02:19:29.540Z,17.70
2022-09-11T02:21:58.547Z,17.70
2022-09-11T02:24:27.811Z,17.60
2022-09-11T02:27:00.627Z,17.60
2022-09-11T02:29:28.103Z,17.60
2022-09-11T02:31:56.347Z,17.60
2022-09-11T02:34:32.103Z,17.50
2022-09-11T02:37:14.435Z,17.50
2022-09-11T02:40:13.624Z,17.50
2022-09-11T02:43:12.067Z,17.50
2022-09-11T02:45:57.982Z,17.50
2022-09-11T02:48:46.126Z,17.50
2022-09-11T02:51:34.793Z,17.60
2022-09-11T02:54:19.180Z,17.60
2022-09-11T02:56:56.896Z,17.60
2022-09-11T02:59:30.258Z,17.60
2022-09-11T03:02:02.153Z,17.60
2022-09-11T03:04:31.463Z,17.60
2022-09-11T03:06:59.490Z,17.60
2022-09-11T03:09:26.735Z,17.60
2022-09-11T03:11:55.012Z,17.50
2022-09-11T03:14:24.660Z,17.50
2022-09-11T03:16:52.315Z,17.50
2022-09-11T03:19:21.680Z,17.50
2022-09-11T03:21:51.576Z,17.40
2022-09-11T03:24:21.274Z,17.40
2022-09-11T03:26:49.037Z,17.50
2022-09-11T03:29:16.219Z,17.50
2022-09-11T03:31:43.646Z,17.50
2022-09-11T03:34:10.870Z,17.50
2022-09-11T03:36:38.068Z,17.50
2022-09-11T03:39:06.127Z,17.50
2022-09-11T03:41:35.907Z,17.50
2022-09-11T03:44:06.659Z,17.50
2022-09-11T03:46:36.540Z,17.50
2022-09-11T03:49:03.837Z,17.50
2022-09-11T03:51:35.764Z,17.50
2022-09-11T03:54:03.397Z,17.50
2022-09-11T03:56:30.823Z,17.50
2022-09-11T03:59:00.953Z,17.50
2022-09-11T04:01:29.082Z,17.50
2022-09-11T04:03:58.739Z,17.50
2022-09-11T04:06:25.946Z,17.50
2022-09-11T04:08:55.603Z,17.50
2022-09-11T04:11:22.886Z,17.50
2022-09-11T04:13:51.212Z,17.50
2022-09-11T04:16:20.334Z,17.50
2022-09-11T04:18:49.385Z,17.50
2022-09-11T04:21:18.597Z,17.40
2022-09-11T04:23:50.458Z,17.20
2022-09-11T04:26:20.220Z,17.20
2022-09-11T04:28:47.941Z,17.20
2022-09-11T04:31:18.926Z,17.20
2022-09-11T04:33:46.968Z,17.20
2022-09-11T04:36:19.587Z,17.20
2022-09-11T04:38:47.881Z,17.20
2022-09-11T04:41:16.871Z,17.30
2022-09-11T04:43:44.563Z,17.30
2022-09-11T04:46:14.268Z,17.30
2022-09-11T04:48:46.671Z,17.40
2022-09-11T04:51:30.199Z,17.40
2022-09-11T04:53:58.774Z,17.30
2022-09-11T04:56:30.030Z,17.40
2022-09-11T04:59:00.234Z,17.30
2022-09-11T05:01:31.212Z,17.30
2022-09-11T05:04:00.680Z,17.30
2022-09-11T05:06:31.118Z,17.20
2022-09-11T05:09:03.928Z,17.20
2022-09-11T05:11:33.907Z,17.10
2022-09-11T05:14:01.701Z,17.10
2022-09-11T05:16:30.826Z,17.10
2022-09-11T05:18:59.384Z,17.10
2022-09-11T05:21:28.230Z,17.10
2022-09-11T05:23:57.904Z,17.10
2022-09-11T05:26:30.752Z,17.00
2022-09-11T05:29:02.745Z,17.00
2022-09-11T05:31:32.726Z,17.10
2022-09-11T05:34:00.642Z,17.10
2022-09-11T05:36:31.108Z,17.10
2022-09-11T05:39:02.588Z,17.10
2022-09-11T05:41:30.518Z,17.20
2022-09-11T05:44:01.752Z,17.20
2022-09-11T05:46:32.108Z,17.30
2022-09-11T05:48:59.661Z,17.40
2022-09-11T05:51:26.873Z,17.40
2022-09-11T05:53:56.078Z,17.50
2022-09-11T05:56:26.266Z,17.50
2022-09-11T05:58:53.496Z,17.50
2022-09-11T06:01:23.217Z,17.60
2022-09-11T06:03:55.274Z,17.70
2022-09-11T06:06:24.130Z,17.70
2022-09-11T06:08:53.902Z,17.70
2022-09-11T06:11:22.063Z,17.80
2022-09-11T06:13:49.642Z,17.80
2022-09-11T06:16:22.172Z,17.90
2022-09-11T06:18:51.122Z,18.00
2022-09-11T06:21:20.851Z,18.00
2022-09-11T06:23:49.809Z,18.10
2022-09-11T06:26:23.136Z,18.20
2022-09-11T06:28:53.916Z,18.20
2022-09-11T06:31:25.793Z,18.20
2022-09-11T06:33:53.462Z,18.00
2022-09-11T06:36:27.749Z,18.10
2022-09-11T06:38:57.118Z,18.10
2022-09-11T06:41:26.598Z,18.00
2022-09-11T06:43:57.282Z,18.10
2022-09-11T06:46:29.436Z,18.00
2022-09-11T06:48:59.054Z,17.80
2022-09-11T06:51:27.109Z,17.80
2022-09-11T06:53:59.174Z,18.00
2022-09-11T06:56:26.543Z,17.90
2022-09-11T06:58:56.125Z,18.10
2022-09-11T07:01:26.166Z,18.10
2022-09-11T07:03:57.041Z,18.10
2022-09-11T07:06:30.226Z,18.10
2022-09-11T07:09:02.514Z,18.20
2022-09-11T07:11:35.253Z,18.20
2022-09-11T07:14:06.405Z,18.20
2022-09-11T07:16:34.824Z,18.30
2022-09-11T07:19:05.763Z,18.30
2022-09-11T07:21:35.555Z,18.30
2022-09-11T07:24:05.761Z,18.30
2022-09-11T07:26:33.097Z,18.30
2022-09-11T07:29:00.808Z,18.40
2022-09-11T07:31:33.141Z,18.40
2022-09-11T07:34:02.762Z,18.50
2022-09-11T07:36:34.711Z,18.50
2022-09-11T07:39:03.669Z,18.50
2022-09-11T07:41:33.095Z,18.60
2022-09-11T07:44:01.267Z,18.70
2022-09-11T07:46:31.213Z,18.70
2022-09-11T07:49:03.002Z,18.80
2022-09-11T07:51:33.287Z,18.80
2022-09-11T07:54:01.263Z,18.70
2022-09-11T07:56:29.034Z,18.70
2022-09-11T07:59:01.968Z,18.80
2022-09-11T08:01:30.927Z,18.80
2022-09-11T08:04:01.288Z,19.00
2022-09-11T08:06:32.557Z,19.00
2022-09-11T08:09:03.671Z,19.00
2022-09-11T08:11:32.480Z,18.90
2022-09-11T08:13:59.745Z,19.00
2022-09-11T08:16:28.813Z,19.00
2022-09-11T08:18:56.977Z,19.20
2022-09-11T08:21:27.288Z,19.10
2022-09-11T08:23:54.962Z,19.10
2022-09-11T08:26:24.786Z,19.20
2022-09-11T08:28:54.422Z,19.40
2022-09-11T08:31:28.354Z,19.50
2022-09-11T08:33:56.522Z,19.50
2022-09-11T08:36:24.433Z,19.60
2022-09-11T08:38:52.626Z,19.20
2022-09-11T08:41:41.096Z,19.30
2022-09-11T08:44:15.169Z,19.40
2022-09-11T08:46:51.078Z,19.70
2022-09-11T08:49:25.147Z,19.70
2022-09-11T08:51:58.583Z,19.80
2022-09-11T08:54:28.124Z,19.90
2022-09-11T08:57:19.020Z,20.00
2022-09-11T09:00:05.394Z,19.90
2022-09-11T09:03:03.567Z,19.90
2022-09-11T09:06:02.858Z,19.90
2022-09-11T09:08:50.150Z,20.00
2022-09-11T09:11:29.081Z,20.20
2022-09-11T09:14:24.876Z,20.30
2022-09-11T09:17:05.125Z,20.40
2022-09-11T09:20:00.477Z,20.40
2022-09-11T09:22:39.512Z,20.50
2022-09-11T09:25:14.074Z,20.50
2022-09-11T09:27:54.202Z,20.70
2022-09-11T09:30:27.665Z,20.50
2022-09-11T09:33:00.076Z,20.60
2022-09-11T09:35:39.611Z,20.80
2022-09-11T09:38:21.856Z,20.80
2022-09-11T09:41:36.381Z,20.80
2022-09-11T09:44:36.453Z,20.80
2022-09-11T09:47:04.327Z,20.90
2022-09-11T09:49:37.600Z,20.40
2022-09-11T09:52:24.470Z,20.50
2022-09-11T09:55:06.787Z,20.60
2022-09-11T09:57:36.874Z,20.80
2022-09-11T10:00:07.596Z,20.90
2022-09-11T10:02:53.957Z,20.90
2022-09-11T10:05:40.640Z,21.00
2022-09-11T10:08:33.731Z,21.20
2022-09-11T10:11:07.932Z,21.40
2022-09-11T10:13:43.685Z,21.00
2022-09-11T10:16:27.861Z,20.80
2022-09-11T10:18:56.424Z,20.90
2022-09-11T10:21:41.583Z,21.30
2022-09-11T10:24:18.014Z,22.10
2022-09-11T10:26:50.856Z,22.20
2022-09-11T10:29:24.227Z,22.20
2022-09-11T10:31:55.941Z,22.00
2022-09-11T10:34:27.197Z,21.70
2022-09-11T10:37:00.501Z,21.50
2022-09-11T10:39:31.776Z,21.70
2022-09-11T10:42:07.501Z,21.70
2022-09-11T10:44:34.796Z,22.00
2022-09-11T10:47:08.092Z,22.40
2022-09-11T10:49:36.162Z,22.40
2022-09-11T10:52:09.631Z,22.60
2022-09-11T10:55:01.907Z,22.70
2022-09-11T10:57:44.325Z,22.20
2022-09-11T11:00:14.491Z,22.20
2022-09-11T11:02:46.549Z,23.40
2022-09-11T11:05:20.732Z,24.60
2022-09-11T11:08:20.702Z,25.50
2022-09-11T11:11:05.755Z,25.70
2022-09-11T11:13:36.092Z,25.10
2022-09-11T11:16:11.047Z,24.60
2022-09-11T11:18:53.881Z,24.40
2022-09-11T11:21:46.912Z,24.50
2022-09-11T11:24:27.592Z,25.10
2022-09-11T11:27:04.642Z,26.20
2022-09-11T11:30:14.541Z,26.40
2022-09-11T11:33:12.546Z,26.40
2022-09-11T11:36:04.335Z,26.60
2022-09-11T11:38:46.750Z,27.40
2022-09-11T11:41:38.499Z,28.20
2022-09-11T11:44:12.245Z,28.70
2022-09-11T11:46:45.182Z,28.40
2022-09-11T11:49:23.491Z,28.00
2022-09-11T11:52:05.849Z,27.30
2022-09-11T11:54:46.600Z,26.60
2022-09-11T11:57:22.260Z,26.40
2022-09-11T11:59:59.399Z,26.30
2022-09-11T12:02:33.801Z,26.30
2022-09-11T12:05:11.385Z,26.10
2022-09-11T12:07:41.975Z,25.40
2022-09-11T12:10:30.834Z,25.30
2022-09-11T12:13:03.625Z,24.70
2022-09-11T12:15:37.558Z,24.40
2022-09-11T12:18:25.456Z,24.10
2022-09-11T12:20:53.299Z,23.30
2022-09-11T12:23:34.784Z,23.20
2022-09-11T12:26:13.598Z,23.20
2022-09-11T12:28:41.522Z,23.70
2022-09-11T12:31:13.814Z,24.30
2022-09-11T12:33:41.059Z,25.50
2022-09-11T12:36:13.262Z,26.30
2022-09-11T12:38:45.372Z,26.70
2022-09-11T12:41:17.329Z,26.90
2022-09-11T12:43:49.443Z,27.00
2022-09-11T12:46:22.495Z,27.50
2022-09-11T12:49:20.465Z,28.30
2022-09-11T12:51:55.169Z,28.80
2022-09-11T12:54:33.490Z,28.90
2022-09-11T12:57:05.715Z,28.00
2022-09-11T12:59:38.016Z,27.70
2022-09-11T13:02:27.948Z,28.00
2022-09-11T13:04:58.728Z,28.30
2022-09-11T13:07:30.415Z,28.30
2022-09-11T13:10:08.027Z,28.60
2022-09-11T13:12:35.232Z,28.90
2022-09-11T13:15:02.551Z,29.40
2022-09-11T13:17:33.752Z,29.70
2022-09-11T13:20:10.147Z,30.10
2022-09-11T13:22:38.540Z,30.30
2022-09-11T13:25:21.161Z,30.40
2022-09-11T13:27:54.425Z,30.40
2022-09-11T13:30:22.822Z,30.40
2022-09-11T13:33:17.128Z,30.30
2022-09-11T13:35:49.573Z,29.50
2022-09-11T13:38:28.399Z,28.60
2022-09-11T13:41:07.740Z,28.80
2022-09-11T13:43:45.767Z,28.80
2022-09-11T13:46:16.204Z,28.40
2022-09-11T13:48:53.166Z,28.40
2022-09-11T13:51:28.294Z,28.80
2022-09-11T13:54:12.860Z,28.80
2022-09-11T13:57:11.691Z,28.90
2022-09-11T13:59:51.861Z,29.20
2022-09-11T14:02:49.524Z,29.10
2022-09-11T14:05:26.606Z,29.00
2022-09-11T14:08:07.671Z,29.00
2022-09-11T14:10:47.081Z,29.00
2022-09-11T14:13:27.636Z,28.80
2022-09-11T14:16:35.982Z,28.80
2022-09-11T14:19:17.878Z,28.10
2022-09-11T14:21:49.869Z,27.10
2022-09-11T14:24:29.780Z,27.00
2022-09-11T14:27:00.259Z,27.20
2022-09-11T14:29:37.433Z,27.40
2022-09-11T14:32:37.764Z,27.70
2022-09-11T14:35:07.988Z,27.70
2022-09-11T14:37:41.883Z,27.10
2022-09-11T14:40:18.030Z,27.00
2022-09-11T14:42:45.710Z,26.90
2022-09-11T14:45:26.096Z,27.30
2022-09-11T14:47:55.850Z,27.60
2022-09-11T14:50:25.522Z,27.60
2022-09-11T14:52:55.550Z,27.70
2022-09-11T14:55:22.970Z,27.70
2022-09-11T14:57:50.914Z,27.70
2022-09-11T15:00:19.210Z,27.60
2022-09-11T15:02:47.807Z,27.60
2022-09-11T15:05:21.630Z,27.30
2022-09-11T15:07:53.044Z,27.30
2022-09-11T15:10:20.385Z,27.10
2022-09-11T15:12:49.170Z,26.60
2022-09-11T15:15:17.706Z,26.40
2022-09-11T15:17:47.053Z,26.30
2022-09-11T15:20:14.841Z,25.90
2022-09-11T15:22:42.134Z,25.80
2022-09-11T15:25:10.205Z,25.50
2022-09-11T15:27:38.175Z,25.30
2022-09-11T15:30:06.446Z,25.00
2022-09-11T15:32:36.194Z,25.40
2022-09-11T15:35:03.752Z,25.50
2022-09-11T15:37:31.351Z,25.30
2022-09-11T15:39:58.970Z,25.20
2022-09-11T15:42:27.021Z,25.20
2022-09-11T15:44:56.895Z,25.20
2022-09-11T15:47:24.578Z,24.90
2022-09-11T15:49:51.875Z,24.80
2022-09-11T15:52:19.576Z,24.90
2022-09-11T15:54:48.844Z,25.00
2022-09-11T15:57:16.662Z,25.00
2022-09-11T15:59:46.609Z,25.30
2022-09-11T16:02:14.834Z,25.50
2022-09-11T16:04:42.624Z,25.50
2022-09-11T16:07:15.035Z,25.50
2022-09-11T16:09:42.369Z,25.60
2022-09-11T16:12:09.644Z,25.40
2022-09-11T16:14:39.767Z,25.50
2022-09-11T16:17:08.134Z,25.40
2022-09-11T16:19:39.271Z,25.10
2022-09-11T16:22:11.302Z,24.90
2022-09-11T16:24:39.098Z,24.90
2022-09-11T16:27:08.204Z,24.80
2022-09-11T16:30:09.171Z,24.40
2022-09-11T16:32:29.109Z,24.30
2022-09-11T16:34:59.614Z,24.30
2022-09-11T16:37:31.049Z,24.30
2022-09-11T16:39:58.830Z,24.10
2022-09-11T16:42:26.380Z,24.20
2022-09-11T16:44:54.157Z,24.30
2022-09-11T16:47:22.330Z,24.50
2022-09-11T16:50:06.450Z,24.50
2022-09-11T16:52:35.398Z,24.40
2022-09-11T16:55:07.240Z,24.40
2022-09-11T16:57:35.182Z,24.30
2022-09-11T17:00:03.714Z,24.20
2022-09-11T17:02:31.072Z,24.20
2022-09-11T17:04:58.412Z,24.20
2022-09-11T17:07:25.665Z,24.10
2022-09-11T17:09:55.809Z,24.10
2022-09-11T17:12:23.477Z,24.10
2022-09-11T17:14:53.094Z,24.10
2022-09-11T17:17:23.258Z,24.20
2022-09-11T17:19:51.195Z,24.00
2022-09-11T17:22:20.929Z,24.00
2022-09-11T17:24:48.252Z,24.00
2022-09-11T17:27:15.573Z,24.10
2022-09-11T17:29:44.758Z,24.10
2022-09-11T17:32:27.967Z,24.00
2022-09-11T17:34:55.913Z,24.00
2022-09-11T17:37:23.224Z,23.90
2022-09-11T17:39:50.543Z,23.90
2022-09-11T17:42:18.324Z,23.90
2022-09-11T17:44:47.949Z,23.90
2022-09-11T17:47:15.698Z,23.80
2022-09-11T17:49:45.551Z,23.70
2022-09-11T17:52:15.573Z,23.60
2022-09-11T17:54:42.816Z,23.50
2022-09-11T17:57:10.274Z,23.40
2022-09-11T17:59:39.671Z,23.30
2022-09-11T18:02:10.378Z,23.20
2022-09-11T18:04:38.465Z,23.00
2022-09-11T18:07:08.184Z,22.90
2022-09-11T18:09:35.565Z,22.80
2022-09-11T18:12:03.625Z,22.70
2022-09-11T18:14:31.523Z,22.50
2022-09-11T18:16:59.929Z,22.40
2022-09-11T18:19:29.889Z,22.40
2022-09-11T18:21:57.536Z,22.30
2022-09-11T18:24:29.652Z,22.20
2022-09-11T18:27:00.748Z,22.20
2022-09-11T18:29:30.353Z,22.10
2022-09-11T18:31:59.917Z,22.00
2022-09-11T18:34:28.521Z,22.00
2022-09-11T18:36:59.983Z,21.90
2022-09-11T18:39:27.514Z,21.70
2022-09-11T18:41:55.398Z,21.60
2022-09-11T18:44:24.632Z,21.60
2022-09-11T18:46:57.742Z,21.50
2022-09-11T18:49:25.464Z,21.40
2022-09-11T18:51:55.160Z,21.40
2022-09-11T18:54:23.089Z,21.40
2022-09-11T18:56:53.103Z,21.30
2022-09-11T18:59:20.380Z,21.30
2022-09-11T19:01:50.472Z,21.30
2022-09-11T19:04:19.053Z,21.20
2022-09-11T19:06:47.176Z,21.20
2022-09-11T19:09:14.757Z,21.10
2022-09-11T19:11:42.505Z,21.00
2022-09-11T19:14:13.284Z,21.00
2022-09-11T19:16:41.474Z,21.00
2022-09-11T19:19:09.585Z,21.00
2022-09-11T19:21:39.861Z,20.90
2022-09-11T19:24:08.091Z,20.90
2022-09-11T19:26:38.867Z,20.90
2022-09-11T19:29:08.615Z,20.80
2022-09-11T19:31:37.364Z,20.80
2022-09-11T19:34:05.427Z,20.70
2022-09-11T19:36:35.246Z,20.60
2022-09-11T19:39:05.649Z,20.60
2022-09-11T19:41:38.411Z,20.50
2022-09-11T19:44:08.593Z,20.50
2022-09-11T19:46:38.123Z,20.50
2022-09-11T19:49:08.225Z,20.40
2022-09-11T19:51:45.504Z,20.40
2022-09-11T19:54:14.377Z,20.30
2022-09-11T19:56:45.074Z,20.40
2022-09-11T19:59:14.318Z,20.20
2022-09-11T20:01:42.971Z,20.20
2022-09-11T20:04:12.355Z,20.10
2022-09-11T20:06:39.617Z,20.10
2022-09-11T20:09:32.091Z,20.10
2022-09-11T20:12:01.105Z,20.00
2022-09-11T20:14:32.654Z,20.00
2022-09-11T20:17:00.989Z,20.00
2022-09-11T20:19:28.595Z,20.00
2022-09-11T20:21:57.987Z,19.90
2022-09-11T20:24:28.983Z,19.90
2022-09-11T20:26:57.567Z,19.90
2022-09-11T20:29:25.414Z,19.90
2022-09-11T20:31:54.721Z,19.80
2022-09-11T20:34:27.479Z,19.80
2022-09-11T20:36:56.742Z,19.80
2022-09-11T20:39:26.469Z,19.70
2022-09-11T20:41:53.727Z,19.60
2022-09-11T20:44:24.426Z,19.60
2022-09-11T20:46:51.724Z,19.60
2022-09-11T20:49:18.997Z,19.60
2022-09-11T20:51:46.202Z,19.60
2022-09-11T20:54:13.609Z,19.60
2022-09-11T20:56:41.541Z,19.50
2022-09-11T20:59:08.818Z,19.50
2022-09-11T21:01:36.362Z,19.50
2022-09-11T21:04:04.732Z,19.40
2022-09-11T21:06:34.199Z,19.40
2022-09-11T21:09:06.886Z,19.30
2022-09-11T21:11:35.510Z,19.30
2022-09-11T21:14:02.946Z,19.30
2022-09-11T21:16:33.150Z,19.30
2022-09-11T21:19:03.876Z,19.30
2022-09-11T21:21:32.620Z,19.20
2022-09-11T21:24:05.830Z,19.20
2022-09-11T21:26:34.407Z,19.10
2022-09-11T21:29:06.835Z,19.10
2022-09-11T21:31:36.987Z,19.10
2022-09-11T21:34:05.132Z,19.00
2022-09-11T21:36:33.634Z,19.00
2022-09-11T21:39:00.854Z,18.90
2022-09-11T21:41:28.127Z,18.90
2022-09-11T21:44:00.040Z,18.90
2022-09-11T21:46:27.386Z,18.90
2022-09-11T21:48:54.836Z,18.90
2022-09-11T21:51:22.293Z,18.90
2022-09-11T21:53:54.514Z,18.80
2022-09-11T21:56:29.107Z,18.80
2022-09-11T21:58:57.254Z,18.70
2022-09-11T22:01:26.429Z,18.60
2022-09-11T22:03:54.600Z,18.60
2022-09-11T22:06:24.680Z,18.60
2022-09-11T22:08:53.370Z,18.50
2022-09-11T22:11:21.188Z,18.50
2022-09-11T22:13:52.915Z,18.50
2022-09-11T22:16:21.533Z,18.40
2022-09-11T22:18:51.085Z,18.40
2022-09-11T22:21:18.781Z,18.40
2022-09-11T22:23:48.514Z,18.40
2022-09-11T22:26:18.502Z,18.40
2022-09-11T22:28:46.005Z,18.40
2022-09-11T22:31:19.102Z,18.40
2022-09-11T22:33:47.002Z,18.30
2022-09-11T22:36:20.833Z,18.20
2022-09-11T22:38:49.442Z,18.10
2022-09-11T22:41:19.744Z,18.10
2022-09-11T22:43:53.002Z,18.10
2022-09-11T22:46:20.965Z,18.20
2022-09-11T22:48:48.408Z,18.10
2022-09-11T22:51:16.633Z,18.10
2022-09-11T22:53:46.766Z,18.10
2022-09-11T22:56:14.290Z,18.10
2022-09-11T22:58:43.899Z,18.10
2022-09-11T23:01:13.286Z,18.00
2022-09-11T23:03:43.002Z,17.80
2022-09-11T23:06:29.816Z,17.70
2022-09-11T23:08:57.262Z,17.70
2022-09-11T23:11:25.290Z,17.80
2022-09-11T23:13:52.935Z,17.80
2022-09-11T23:16:23.083Z,17.80
2022-09-11T23:18:58.103Z,17.80
2022-09-11T23:21:26.664Z,17.70
2022-09-11T23:23:58.245Z,17.70
2022-09-11T23:26:28.397Z,17.70
2022-09-11T23:28:56.132Z,17.80
2022-09-11T23:31:29.127Z,17.80
2022-09-11T23:34:00.512Z,17.70
2022-09-11T23:36:29.377Z,17.70
2022-09-11T23:38:57.538Z,17.70
2022-09-11T23:41:28.087Z,17.70
2022-09-11T23:43:58.103Z,17.70
2022-09-11T23:46:26.156Z,17.70
2022-09-11T23:48:53.418Z,17.60
2022-09-11T23:51:21.243Z,17.60
2022-09-11T23:53:51.593Z,17.50
2022-09-11T23:56:19.418Z,17.60
2022-09-11T23:58:46.825Z,17.50
